createdAt,value
2019-05-05T00:01:01.104Z,95.75
2019-05-05T00:04:20.535Z,96.39
2019-05-05T00:07:30.800Z,92.67
2019-05-05T00:10:56.969Z,93.40
2019-05-05T00:14:29.249Z,92.14
2019-05-05T00:17:34.432Z,92.11
2019-05-05T00:20:39.617Z,93.35
2019-05-05T00:23:45.189Z,98.53
2019-05-05T00:26:50.625Z,99.17
2019-05-05T00:29:55.887Z,99.56
2019-05-05T00:33:01.044Z,97.15
2019-05-05T00:36:07.833Z,97.89
2019-05-05T00:39:14.994Z,99.71
2019-05-05T00:42:20.461Z,98.31
2019-05-05T00:45:26.254Z,98.97
2019-05-05T00:48:37.443Z,98.69
2019-05-05T00:51:44.339Z,93.58
2019-05-05T00:54:49.472Z,92.11
2019-05-05T00:57:54.925Z,96.28
2019-05-05T01:01:17.762Z,97.18
2019-05-05T01:04:28.874Z,98.09
2019-05-05T01:07:35.085Z,99.11
2019-05-05T01:10:40.409Z,101.62
2019-05-05T01:13:45.685Z,100.60
2019-05-05T01:16:50.934Z,100.11
2019-05-05T01:20:03.423Z,99.93
2019-05-05T01:23:04.423Z,101.94
2019-05-05T01:26:09.818Z,101.63
2019-05-05T01:29:15.029Z,102.21
2019-05-05T01:32:25.668Z,103.42
2019-05-05T01:35:30.795Z,101.45
2019-05-05T01:38:44.817Z,96.86
2019-05-05T01:41:54.294Z,99.93
2019-05-05T01:44:59.550Z,99.01
2019-05-05T01:48:04.984Z,101.20
2019-05-05T01:51:10.228Z,102.82
2019-05-05T01:54:15.399Z,98.27
2019-05-05T01:57:20.622Z,97.15
2019-05-05T02:00:25.825Z,95.35
2019-05-05T02:03:31.307Z,97.24
2019-05-05T02:06:36.420Z,96.89
2019-05-05T02:09:41.490Z,99.18
2019-05-05T02:12:46.650Z,95.76
2019-05-05T02:15:51.805Z,93.36
2019-05-05T02:18:56.964Z,91.73
2019-05-05T02:22:02.195Z,92.87
2019-05-05T02:25:07.594Z,94.92
2019-05-05T02:28:14.774Z,99.24
2019-05-05T02:31:47.910Z,97.76
2019-05-05T02:34:57.303Z,92.42
2019-05-05T02:38:02.425Z,93.02
2019-05-05T02:41:08.616Z,94.02
2019-05-05T02:44:15.473Z,96.24
2019-05-05T02:47:34.833Z,97.50
2019-05-05T02:51:01.779Z,98.93
2019-05-05T02:54:05.275Z,99.83
2019-05-05T02:57:13.480Z,98.89
2019-05-05T03:00:36.713Z,97.73
2019-05-05T03:03:43.806Z,96.35
2019-05-05T03:06:51.526Z,96.77
2019-05-05T03:09:57.694Z,97.27
2019-05-05T03:13:04.922Z,98.19
2019-05-05T03:16:18.897Z,99.69
2019-05-05T03:19:25.264Z,100.33
2019-05-05T03:22:31.110Z,100.75
2019-05-05T03:25:37.234Z,101.08
2019-05-05T03:28:46.214Z,101.66
2019-05-05T03:31:51.533Z,103.04
2019-05-05T03:34:56.773Z,102.92
2019-05-05T03:38:03.767Z,104.68
2019-05-05T03:41:13.597Z,106.08
2019-05-05T03:44:24.135Z,106.99
2019-05-05T03:47:29.829Z,108.64
2019-05-05T03:50:34.973Z,109.46
2019-05-05T03:53:40.325Z,109.80
2019-05-05T03:56:45.973Z,110.16
2019-05-05T03:59:52.259Z,110.12
2019-05-05T04:03:04.218Z,110.69
2019-05-05T04:06:09.549Z,111.49
2019-05-05T04:09:14.694Z,112.02
2019-05-05T04:12:19.797Z,111.89
2019-05-05T04:15:24.955Z,112.92
2019-05-05T04:18:31.282Z,112.89
2019-05-05T04:21:36.895Z,110.68
2019-05-05T04:24:43.674Z,103.51
2019-05-05T04:27:48.902Z,100.62
2019-05-05T04:30:54.130Z,95.35
2019-05-05T04:34:00.391Z,90.33
2019-05-05T04:37:05.617Z,88.14
2019-05-05T04:40:11.265Z,81.33
2019-05-05T04:43:16.503Z,79.42
2019-05-05T04:46:21.665Z,78.58
2019-05-05T04:49:40.363Z,75.27
2019-05-05T04:52:45.514Z,77.68
2019-05-05T04:55:54.894Z,71.64
2019-05-05T04:59:00.053Z,69.12
2019-05-05T05:02:11.434Z,62.48
2019-05-05T05:05:26.876Z,63.58
2019-05-05T05:08:33.685Z,66.48
2019-05-05T05:11:38.971Z,70.08
2019-05-05T05:14:44.222Z,64.03
2019-05-05T05:17:55.864Z,63.69
2019-05-05T05:21:00.972Z,63.35
2019-05-05T05:24:06.060Z,62.39
2019-05-05T05:27:11.400Z,65.84
2019-05-05T05:30:16.700Z,71.49
2019-05-05T05:33:23.733Z,72.14
2019-05-05T05:36:28.628Z,72.43
2019-05-05T05:39:39.902Z,70.19
2019-05-05T05:42:44.996Z,64.65
2019-05-05T05:45:56.621Z,58.77
2019-05-05T05:49:24.315Z,60.30
2019-05-05T05:52:29.651Z,61.89
2019-05-05T05:55:34.899Z,60.36
2019-05-05T05:58:40.068Z,63.27
2019-05-05T06:02:09.714Z,64.98
2019-05-05T06:05:10.785Z,62.08
2019-05-05T06:08:18.894Z,56.76
2019-05-05T06:11:24.091Z,58.29
2019-05-05T06:14:29.336Z,54.68
2019-05-05T06:17:34.563Z,60.27
2019-05-05T06:20:39.858Z,58.37
2019-05-05T06:23:45.005Z,56.16
2019-05-05T06:26:50.153Z,53.37
2019-05-05T06:29:55.348Z,56.67
2019-05-05T06:33:00.560Z,51.76
2019-05-05T06:36:05.706Z,54.18
2019-05-05T06:39:13.958Z,46.01
2019-05-05T06:42:44.095Z,53.83
2019-05-05T06:45:54.000Z,58.67
2019-05-05T06:48:59.116Z,59.40
2019-05-05T06:52:04.459Z,63.97
2019-05-05T06:55:09.696Z,73.76
2019-05-05T06:58:15.915Z,63.23
2019-05-05T07:01:21.070Z,65.49
2019-05-05T07:04:26.230Z,63.82
2019-05-05T07:07:31.400Z,63.00
2019-05-05T07:10:36.811Z,67.82
2019-05-05T07:13:44.156Z,75.63
2019-05-05T07:16:48.840Z,73.89
2019-05-05T07:19:54.424Z,65.92
2019-05-05T07:23:03.046Z,65.08
2019-05-05T07:26:06.605Z,68.57
2019-05-05T07:29:11.740Z,70.64
2019-05-05T07:32:16.908Z,71.35
2019-05-05T07:35:28.574Z,70.89
2019-05-05T07:38:33.864Z,75.68
2019-05-05T07:41:40.703Z,69.89
2019-05-05T07:44:45.985Z,68.03
2019-05-05T07:47:51.233Z,72.76
2019-05-05T07:51:01.991Z,66.28
2019-05-05T07:54:03.817Z,71.54
2019-05-05T07:57:09.181Z,75.73
2019-05-05T08:00:14.922Z,73.21
2019-05-05T08:03:20.193Z,64.06
2019-05-05T08:06:25.395Z,70.98
2019-05-05T08:09:30.589Z,72.85
2019-05-05T08:12:35.816Z,67.42
2019-05-05T08:15:56.695Z,63.18
2019-05-05T08:19:09.161Z,60.04
2019-05-05T08:22:14.390Z,63.29
2019-05-05T08:25:40.652Z,66.17
2019-05-05T08:29:04.800Z,67.76
2019-05-05T08:32:26.159Z,69.24
2019-05-05T08:35:34.408Z,64.71
2019-05-05T08:38:39.785Z,65.35
2019-05-05T08:41:47.287Z,68.85
2019-05-05T08:44:53.732Z,74.54
2019-05-05T08:47:58.600Z,80.91
2019-05-05T08:51:04.829Z,80.78
2019-05-05T08:54:10.285Z,78.43
2019-05-05T08:57:15.495Z,79.00
2019-05-05T09:00:20.874Z,75.39
2019-05-05T09:03:26.010Z,76.57
2019-05-05T09:06:31.134Z,76.26
2019-05-05T09:09:36.386Z,69.58
2019-05-05T09:12:43.588Z,70.91
2019-05-05T09:15:48.466Z,68.50
2019-05-05T09:19:06.104Z,67.57
2019-05-05T09:22:11.268Z,69.03
2019-05-05T09:25:39.331Z,65.99
2019-05-05T09:29:13.643Z,62.16
2019-05-05T09:32:16.474Z,64.91
2019-05-05T09:35:24.087Z,64.93
2019-05-05T09:38:30.335Z,64.22
2019-05-05T09:41:35.679Z,67.40
2019-05-05T09:44:40.907Z,63.18
2019-05-05T09:47:46.057Z,62.81
2019-05-05T09:50:51.318Z,62.13
2019-05-05T09:53:56.539Z,66.52
2019-05-05T09:57:01.807Z,70.66
2019-05-05T10:00:11.011Z,69.07
2019-05-05T10:03:16.386Z,67.84
2019-05-05T10:06:21.549Z,67.96
2019-05-05T10:09:26.692Z,66.47
2019-05-05T10:12:33.842Z,68.60
2019-05-05T10:15:41.241Z,68.07
2019-05-05T10:18:46.468Z,64.44
2019-05-05T10:21:51.671Z,66.00
2019-05-05T10:25:15.751Z,64.51
2019-05-05T10:28:21.064Z,64.93
2019-05-05T10:31:26.292Z,63.45
2019-05-05T10:34:33.425Z,63.11
2019-05-05T10:37:38.308Z,65.54
2019-05-05T10:40:44.610Z,60.14
2019-05-05T10:43:50.924Z,59.76
2019-05-05T10:46:56.093Z,57.14
2019-05-05T10:50:01.267Z,65.48
2019-05-05T10:53:06.458Z,73.06
2019-05-05T10:56:13.541Z,79.88
2019-05-05T10:59:19.449Z,80.06
2019-05-05T11:02:24.642Z,78.12
2019-05-05T11:05:30.100Z,74.65
2019-05-05T11:08:35.995Z,71.84
2019-05-05T11:11:41.270Z,62.38
2019-05-05T11:14:46.406Z,64.10
2019-05-05T11:17:54.321Z,66.20
2019-05-05T11:20:59.610Z,65.81
2019-05-05T11:24:04.872Z,64.90
2019-05-05T11:27:10.063Z,65.37
2019-05-05T11:30:21.391Z,61.84
2019-05-05T11:33:48.305Z,60.27
2019-05-05T11:37:00.289Z,62.61
2019-05-05T11:40:05.735Z,63.07
2019-05-05T11:43:10.921Z,64.91
2019-05-05T11:46:16.080Z,66.31
2019-05-05T11:49:21.324Z,67.12
2019-05-05T11:52:26.601Z,64.48
2019-05-05T11:55:33.551Z,62.67
2019-05-05T11:58:38.855Z,59.15
2019-05-05T12:01:44.251Z,61.17
2019-05-05T12:04:49.617Z,60.08
2019-05-05T12:07:54.739Z,55.42
2019-05-05T12:11:04.476Z,54.09
2019-05-05T12:14:11.217Z,57.26
2019-05-05T12:17:19.525Z,54.37
2019-05-05T12:20:33.748Z,58.51
2019-05-05T12:23:39.107Z,60.23
2019-05-05T12:26:54.234Z,61.71
2019-05-05T12:30:08.199Z,62.01
2019-05-05T12:33:13.860Z,60.41
2019-05-05T12:36:19.055Z,62.29
2019-05-05T12:39:24.244Z,57.88
2019-05-05T12:42:29.440Z,55.18
2019-05-05T12:45:36.167Z,56.17
2019-05-05T12:48:43.897Z,58.58
2019-05-05T12:51:49.150Z,59.32
2019-05-05T12:54:54.657Z,59.72
2019-05-05T12:57:59.889Z,58.74
2019-05-05T13:01:14.171Z,60.51
2019-05-05T13:04:19.060Z,58.27
2019-05-05T13:07:24.433Z,56.62
2019-05-05T13:10:29.902Z,54.61
2019-05-05T13:13:35.142Z,52.96
2019-05-05T13:16:52.068Z,53.22
2019-05-05T13:19:55.124Z,52.93
2019-05-05T13:23:19.335Z,56.24
2019-05-05T13:26:49.496Z,54.42
2019-05-05T13:29:54.728Z,56.69
2019-05-05T13:33:03.560Z,54.92
2019-05-05T13:36:08.492Z,61.60
2019-05-05T13:39:14.390Z,63.86
2019-05-05T13:42:20.011Z,65.62
2019-05-05T13:45:47.270Z,63.57
2019-05-05T13:48:53.913Z,64.45
2019-05-05T13:52:04.602Z,65.77
2019-05-05T13:55:11.056Z,68.47
2019-05-05T13:58:16.327Z,69.25
2019-05-05T14:01:23.542Z,67.77
2019-05-05T14:04:28.387Z,67.63
2019-05-05T14:07:34.296Z,66.73
2019-05-05T14:10:39.918Z,61.79
2019-05-05T14:13:48.295Z,64.60
2019-05-05T14:16:53.801Z,62.68
2019-05-05T14:20:04.659Z,58.42
2019-05-05T14:23:06.127Z,58.27
2019-05-05T14:26:24.999Z,59.42
2019-05-05T14:29:38.798Z,57.97
2019-05-05T14:32:44.588Z,58.37
2019-05-05T14:36:15.421Z,54.54
2019-05-05T14:39:21.290Z,58.09
2019-05-05T14:42:26.663Z,57.30
2019-05-05T14:45:33.884Z,56.47
2019-05-05T14:48:38.692Z,54.77
2019-05-05T14:51:48.870Z,53.62
2019-05-05T14:54:54.556Z,55.79
2019-05-05T14:58:01.055Z,54.40
2019-05-05T15:01:06.297Z,55.63
2019-05-05T15:04:13.385Z,55.15
2019-05-05T15:07:33.905Z,51.37
2019-05-05T15:10:54.768Z,51.58
2019-05-05T15:14:00.102Z,52.09
2019-05-05T15:17:05.367Z,51.35
2019-05-05T15:20:11.137Z,54.63
2019-05-05T15:23:16.462Z,55.21
2019-05-05T15:26:23.796Z,56.00
2019-05-05T15:29:29.252Z,54.89
2019-05-05T15:32:34.645Z,57.40
2019-05-05T15:35:39.846Z,59.50
2019-05-05T15:38:45.056Z,60.41
2019-05-05T15:41:50.266Z,63.33
2019-05-05T15:44:55.407Z,63.39
2019-05-05T15:48:00.539Z,64.29
2019-05-05T15:51:05.852Z,68.25
2019-05-05T15:54:11.068Z,67.22
2019-05-05T15:57:18.046Z,65.66
2019-05-05T16:00:23.228Z,66.78
2019-05-05T16:03:30.072Z,65.54
2019-05-05T16:06:35.841Z,65.00
2019-05-05T16:09:40.970Z,65.59
2019-05-05T16:12:46.157Z,65.60
2019-05-05T16:16:11.005Z,64.51
2019-05-05T16:19:34.026Z,64.61
2019-05-05T16:22:59.127Z,62.62
2019-05-05T16:26:04.409Z,60.07
2019-05-05T16:29:09.631Z,60.57
2019-05-05T16:32:21.666Z,57.50
2019-05-05T16:35:23.650Z,55.75
2019-05-05T16:38:28.586Z,55.66
2019-05-05T16:41:34.126Z,57.71
2019-05-05T16:44:40.488Z,59.40
2019-05-05T16:47:45.756Z,58.54
2019-05-05T16:50:50.963Z,57.56
2019-05-05T16:53:57.702Z,54.60
2019-05-05T16:57:03.996Z,56.21
2019-05-05T17:00:09.828Z,53.78
2019-05-05T17:03:15.276Z,53.74
2019-05-05T17:06:20.489Z,53.26
2019-05-05T17:09:25.722Z,55.73
2019-05-05T17:12:38.961Z,55.03
2019-05-05T17:16:07.631Z,56.89
2019-05-05T17:19:22.073Z,57.53
2019-05-05T17:22:34.033Z,59.85
2019-05-05T17:25:39.506Z,57.76
2019-05-05T17:28:44.743Z,58.47
2019-05-05T17:31:49.908Z,59.42
2019-05-05T17:34:55.114Z,60.07
2019-05-05T17:38:13.832Z,60.49
2019-05-05T17:41:31.168Z,62.09
2019-05-05T17:44:56.152Z,63.04
2019-05-05T17:48:08.308Z,63.08
2019-05-05T17:51:20.651Z,62.85
2019-05-05T17:54:28.853Z,64.43
2019-05-05T17:57:34.549Z,61.62
2019-05-05T18:00:48.408Z,65.26
2019-05-05T18:03:54.479Z,65.59
2019-05-05T18:07:10.640Z,65.01
2019-05-05T18:10:29.640Z,66.43
2019-05-05T18:13:39.745Z,68.21
2019-05-05T18:16:47.044Z,68.79
2019-05-05T18:19:53.576Z,69.41
2019-05-05T18:22:58.952Z,69.33
2019-05-05T18:26:04.223Z,72.65
2019-05-05T18:29:09.448Z,72.86
2019-05-05T18:32:14.622Z,73.96
2019-05-05T18:35:19.787Z,75.78
2019-05-05T18:38:25.009Z,78.05
2019-05-05T18:41:40.964Z,78.51
2019-05-05T18:44:48.557Z,79.66
2019-05-05T18:47:53.926Z,79.72
2019-05-05T18:50:59.487Z,80.22
2019-05-05T18:54:04.802Z,80.89
2019-05-05T18:57:10.049Z,81.30
2019-05-05T19:00:18.719Z,82.02
2019-05-05T19:03:29.058Z,82.06
2019-05-05T19:06:50.337Z,83.84
2019-05-05T19:09:56.962Z,84.08
2019-05-05T19:13:02.412Z,84.42
2019-05-05T19:16:07.691Z,84.89
2019-05-05T19:19:14.289Z,87.01
2019-05-05T19:22:36.173Z,86.17
2019-05-05T19:25:41.506Z,86.11
2019-05-05T19:28:49.931Z,87.13
2019-05-05T19:31:55.117Z,87.75
2019-05-05T19:35:00.436Z,88.58
2019-05-05T19:38:05.799Z,88.02
2019-05-05T19:41:10.948Z,89.78
2019-05-05T19:44:16.183Z,89.00
2019-05-05T19:47:24.281Z,88.67
2019-05-05T19:50:41.296Z,87.57
2019-05-05T19:53:46.631Z,89.80
2019-05-05T19:56:54.084Z,90.74
2019-05-05T19:59:58.908Z,89.55
2019-05-05T20:03:05.080Z,90.53
2019-05-05T20:06:10.544Z,90.87
2019-05-05T20:09:15.762Z,89.94
2019-05-05T20:12:20.987Z,90.02
2019-05-05T20:15:35.013Z,89.20
2019-05-05T20:18:40.204Z,88.03
2019-05-05T20:21:46.418Z,88.20
2019-05-05T20:24:51.837Z,87.67
2019-05-05T20:27:56.999Z,88.04
2019-05-05T20:31:03.702Z,88.96
2019-05-05T20:34:24.317Z,91.78
2019-05-05T20:38:00.661Z,91.93
2019-05-05T20:41:14.251Z,92.40
2019-05-05T20:44:19.781Z,92.16
2019-05-05T20:47:24.967Z,92.90
2019-05-05T20:50:30.173Z,94.05
2019-05-05T20:53:35.442Z,94.35
2019-05-05T20:56:44.357Z,95.28
2019-05-05T20:59:48.844Z,95.67
2019-05-05T21:02:54.032Z,94.43
2019-05-05T21:05:59.181Z,93.54
2019-05-05T21:09:05.765Z,94.00
2019-05-05T21:12:11.064Z,93.93
2019-05-05T21:15:16.310Z,93.16
2019-05-05T21:18:26.393Z,93.53
2019-05-05T21:21:31.083Z,92.38
2019-05-05T21:24:36.273Z,91.99
2019-05-05T21:27:43.527Z,92.12
2019-05-05T21:30:48.418Z,93.48
2019-05-05T21:33:54.771Z,94.36
2019-05-05T21:37:00.298Z,95.57
2019-05-05T21:40:06.093Z,96.03
2019-05-05T21:43:11.242Z,95.47
2019-05-05T21:46:16.452Z,95.44
2019-05-05T21:49:21.698Z,95.98
2019-05-05T21:52:36.194Z,96.06
2019-05-05T21:55:46.413Z,96.83
2019-05-05T21:58:53.582Z,97.13
2019-05-05T22:01:58.574Z,96.82
2019-05-05T22:05:04.176Z,97.32
2019-05-05T22:08:10.958Z,97.15
2019-05-05T22:11:16.128Z,97.57
2019-05-05T22:14:21.259Z,98.09
2019-05-05T22:17:26.430Z,97.76
2019-05-05T22:20:39.968Z,97.81
2019-05-05T22:24:04.045Z,97.50
2019-05-05T22:27:09.188Z,98.04
2019-05-05T22:30:14.662Z,98.66
2019-05-05T22:33:19.802Z,98.22
2019-05-05T22:36:25.968Z,99.21
2019-05-05T22:39:31.103Z,99.62
2019-05-05T22:42:36.220Z,99.67
2019-05-05T22:45:41.427Z,100.98
2019-05-05T22:48:46.549Z,101.72
2019-05-05T22:51:51.673Z,101.56
2019-05-05T22:54:57.009Z,100.35
2019-05-05T22:58:04.022Z,99.83
2019-05-05T23:01:09.003Z,99.83
2019-05-05T23:04:43.713Z,99.79
2019-05-05T23:07:55.296Z,100.20
2019-05-05T23:11:00.564Z,99.99
2019-05-05T23:14:24.754Z,100.26
2019-05-05T23:17:43.789Z,101.46
2019-05-05T23:21:02.204Z,102.29
2019-05-05T23:24:23.776Z,101.74
2019-05-05T23:27:47.913Z,102.87
2019-05-05T23:30:54.749Z,102.33
2019-05-05T23:34:00.073Z,102.81
2019-05-05T23:37:05.195Z,103.01
2019-05-05T23:40:11.063Z,102.82
2019-05-05T23:43:16.192Z,103.15
2019-05-05T23:46:21.399Z,103.71
2019-05-05T23:49:26.710Z,104.36
2019-05-05T23:52:31.893Z,105.98
2019-05-05T23:55:37.034Z,105.23
2019-05-05T23:58:44.116Z,106.35
